Waring, Texas
Current Conditions -  °F | °C
As of 11:35 PM on Sunday 21 Dec 2014 (Local Time) from KERV Reporting Station
Haze Haze  
Wind Chill: 51°   Ceiling: 600
Heat Index: 51°   Visibility: 5mi
Dew Point: 49°   Wind: 7mph
Humidity: 93%   Direction: 180°S
Pressure: 29.85"   Gusts: NA
Location:  29.95°N, 98.8°W
Report Text: KERV 220535Z AUTO 18006KT 5SM BR OVC006 11/10 A2985 RMK AO2 T01060095
Loading
Personal Weather Stations






























Interactive Weather Map New forecast layout! Learn more

10-Day Weather Forecast

Advertisements
Track Severe Weather on mobile